• Join FlightAware (Why Join?)
  • Login
  • US Flag 
02:37AM EST


 

Airport Tracker/Info


-or-


 

Live Flight TrackerFlight Track Log ✈ ASQ5230 ✈ 08-Aug-2014 ✈ KCID - KATL

Flight Track Log - Related Links

Times and Time Zones

All times are in EDT time to prevent confusion due to time zone crossing. See the ASQ5230 flight status page for this flight to view local times or setup timezone preferences in your user account.

Time Position Orientation Groundspeed Altitude Reporting Facility
EDT Latitude Longitude Course Direction KTS MPH feet Rate Location/Type
07:14AM 41.8203 -91.6383 162° South 231 266 35,000  Level Chicago Center
07:15AM 41.7536 -91.6353 178° South 239 275 6,700 -12,885 Descending Chicago Center
07:16AM 41.6783 -91.6275 176° South 276 318 8,800 1,918 Climbing Chicago Center
07:17AM 41.5967 -91.6222 177° South 287 330 10,600 1,377 Climbing Chicago Center
07:18AM 41.3940 -91.5480 166° South  Level FlightAware Approximate
07:18AM 41.4964 -91.6033 172° South 343 395 11,600  Level Chicago Center
07:19AM 41.2822 -91.5036 162° South  Level FlightAware Approximate
07:19AM 41.3953 -91.5600 162° South 375 432 13,100  Level Chicago Center
07:20AM 41.2883 -91.5111 161° South 395 455 14,600 1,415 Climbing Chicago Center
07:21AM 41.1819 -91.4650 162° South 403 464 16,000 1,463 Climbing Chicago Center
07:22AM 41.0719 -91.4164 162° South 414 476 17,600 1,623 Climbing Chicago Center
07:23AM 40.9439 -91.3611 162° South 418 481 19,300 1,561 Climbing Chicago Center
07:24AM 40.8311 -91.3122 162° South 419 482 20,800 1,512 Climbing Chicago Center
07:25AM 40.7122 -91.2611 162° South 425 489 22,400 1,328 Climbing Chicago Center
07:26AM 40.6008 -91.2122 162° South 425 489 23,500 1,024 Climbing Chicago Center
07:27AM 40.4836 -91.1628 162° South 432 497 24,500 957 Climbing Chicago Center
07:28AM 40.3611 -91.0456 144° Southeast 455 524 25,700 976 Climbing Kansas City Center
07:29AM 40.2786 -90.9667 144° Southeast 451 519 26,500 1,111 Climbing Chicago Center
07:30AM 40.1450 -90.9078 161° South 457 526 27,700 1,122 Climbing Chicago Center
07:31AM 40.0197 -90.8844 172° South 458 527 28,800 1,232 Climbing Chicago Center
07:33AM 39.7797 -90.8639 181° South 451 519 31,500 1,043 Climbing Chicago Center
07:34AM 39.6931 -90.9586 220° Southwest 415 478 32,000 496 Climbing Chicago Center
07:35AM 39.5767 -91.0939 222° Southwest 419 482 32,600 496 Climbing Kansas City Center
07:36AM 39.4839 -91.2003 222° Southwest 435 501 33,100 492 Climbing Kansas City Center
07:37AM 39.3897 -91.3103 222° Southwest 449 517 33,600 750 Climbing Kansas City Center
07:38AM 39.2839 -91.4014 214° Southwest 460 529 34,600 683 Climbing Kansas City Center
07:39AM 39.1572 -91.4225 187° South 465 535 35,000 194 Climbing Kansas City Center
07:40AM 39.0250 -91.3817 167° South 487 560 35,000  Level Kansas City Center
07:41AM 38.8889 -91.3322 164° South 502 578 35,000  Level Kansas City Center
07:42AM 38.7536 -91.2831 164° South 506 582 35,000  Level Kansas City Center
07:43AM 38.6206 -91.2347 164° South 506 582 35,000  Level Kansas City Center
07:44AM 38.4892 -91.1869 164° South 499 574 35,000  Level Kansas City Center
07:45AM 38.3331 -91.1319 165° South 495 570 35,000  Level Kansas City Center
07:46AM 38.2053 -91.0861 164° South 488 562 35,000  Level Kansas City Center
07:47AM 38.0786 -91.0381 163° South 483 556 35,000  Level Kansas City Center
07:48AM 37.9511 -90.9931 164° South 480 552 35,000  Level Kansas City Center
07:49AM 37.8242 -90.9483 164° South 480 552 35,000  Level Kansas City Center
07:52AM 37.5144 -90.8378 164° South 476 548 35,000  Level Memphis Center
07:53AM 37.3883 -90.7939 165° South 476 548 35,000  Level Memphis Center
07:53AM 37.3086 -90.7678 165° South 474 545 35,000  Level Kansas City Center
07:54AM 37.1753 -90.7222 165° South 474 545 35,000  Level Kansas City Center
07:55AM 37.0464 -90.6753 164° South 478 550 35,000  Level Kansas City Center
07:57AM 36.7853 -90.5844 164° South 486 559 35,000  Level Kansas City Center
07:59AM 36.6561 -90.5394 164° South 486 559 35,000  Level Kansas City Center
08:00AM 36.4725 -90.4742 164° South 488 562 35,000  Level Memphis Center
08:01AM 36.3136 -90.4208 165° South 488 562 35,000  Level Memphis Center
08:02AM 36.1817 -90.3761 165° South 489 563 35,000  Level Memphis Center
08:03AM 36.0506 -90.3314 165° South 489 563 35,000  Level Memphis Center
08:04AM 35.9186 -90.2872 165° South 490 564 35,000  Level Memphis Center
08:05AM 35.7867 -90.2425 165° South 490 564 35,000  Level Memphis Center
08:06AM 35.6544 -90.1986 165° South 490 564 35,000  Level Memphis Center
08:07AM 35.5225 -90.1542 165° South 491 565 35,000  Level Memphis Center
08:08AM 35.3906 -90.1097 165° South 491 565 35,000  Level Memphis Center
08:09AM 35.2331 -90.0581 165° South 491 565 35,000  Level Memphis Center
08:10AM 35.1064 -89.9956 158° South 502 578 35,000  Level Memphis Center
08:11AM 35.0167 -89.8733 132° Southeast 492 566 35,000  Level Memphis Center
08:12AM 34.9767 -89.7094 107° East 510 587 35,000  Level Memphis Center
08:13AM 34.9364 -89.5464 107° East 499 574 35,000  Level Memphis Center
08:14AM 34.8794 -89.3950 115° Southeast 493 567 35,000  Level Memphis Center
08:15AM 34.8253 -89.2458 114° Southeast 487 560 35,000  Level Memphis Center
08:16AM 34.7708 -89.0947 114° Southeast 486 559 35,000  Level Memphis Center
08:17AM 34.7156 -88.9439 114° Southeast 487 560 35,000  Level Memphis Center
08:18AM 34.6644 -88.7919 112° Southeast 486 559 35,000  Level Memphis Center
08:19AM 34.6336 -88.6347 103° East 484 557 35,000 -146 Level Memphis Center
08:20AM 34.6356 -88.4575 89° East 478 550 34,700 -629 Descending Memphis Center
08:21AM 34.6325 -88.2931 91° East 482 555 33,700 -829 Descending Memphis Center
08:22AM 34.6308 -88.1247 91° East 493 567 33,000 -341 Descending Memphis Center
08:24AM 34.6275 -87.9242 91° East 495 570 33,000  Level Memphis Center
08:25AM 34.6250 -87.7592 91° East 489 563 33,000  Level Memphis Center
08:26AM 34.6231 -87.5925 91° East 489 563 33,000  Level Memphis Center
08:27AM 34.6169 -87.4247 92° East 489 563 33,000  Level Memphis Center
08:28AM 34.5850 -87.2594 103° East 494 568 33,000  Level Memphis Center
08:29AM 34.5550 -87.0972 103° East 494 568 33,000  Level Memphis Center
08:30AM 34.5242 -86.9358 103° East 493 567 33,000 -484 Level Memphis Center
08:31AM 34.4925 -86.7747 103° East 492 566 32,000 -976 Descending Memphis Center
08:32AM 34.4617 -86.6136 103° East 492 566 31,000 -976 Descending Memphis Center
08:33AM 34.4303 -86.4528 103° East 492 566 30,000 -968 Descending Memphis Center
08:34AM 34.3992 -86.2917 103° East 492 566 29,000 -1,073 Descending Memphis Center
08:35AM 34.3592 -86.0969 104° East 493 567 27,800 -1,073 Descending Memphis Center
08:36AM 34.3122 -85.9439 110° East 486 559 26,800 -1,742 Descending Memphis Center
08:37AM 34.2539 -85.8011 116° Southeast 478 550 24,200 -2,537 Descending Memphis Center
08:38AM 34.1978 -85.6672 117° Southeast 457 526 21,600 2,870 Descending Memphis Center
08:40AM 34.0894 -85.4058 117° Southeast 417 480 33,000 -2,361 Climbing Atlanta Center
08:41AM 34.0383 -85.2922 118° Southeast 402 463 14,400 -10,400 Descending Atlanta Center
08:42AM 33.9914 -85.1789 117° Southeast 392 451 12,200 -1,350 Descending Atlanta Center
08:43AM 33.9506 -85.0806 117° Southeast 361 415 11,700 -800 Descending Atlanta Center
08:44AM 33.9117 -84.9925 118° Southeast 323 372 10,600 -1,100 Descending Atlanta Center
08:45AM 33.8600 -84.9119 128° Southeast 311 358 9,500 -800 Descending Atlanta Center
08:46AM 33.7850 -84.9011 173° South 261 300 9,000 -450 Descending Atlanta Center
08:47AM 33.7203 -84.8931 174° South 243 280 8,600 -703 Descending Atlanta Center
08:48AM 33.6667 -84.8667 158° South 242 278 7,700 -1,200 Descending Atlanta TRACON
08:49AM 33.6333 -84.8167 129° Southeast 253 291 6,500 -1,111 Descending Atlanta TRACON
08:50AM 33.6333 -84.7500 90° East 242 278 5,700 -1,158 Descending Atlanta TRACON
08:51AM 33.6333 -84.6667 90° East 250 288 4,300 -1,300 Descending Atlanta TRACON
08:52AM 33.6333 -84.5833 90° East 231 266 3,100 -1,111 Descending Atlanta TRACON
08:52AM 33.6333 -84.5333 90° East 213 245 2,300 -944 Descending Atlanta TRACON
08:53AM 33.6333 -84.4667 90° East 154 177 1,400 -900 Descending Atlanta TRACON
08:55AM 33.6367 -84.4279 North  Level Estimated
09:02AM 33.6367 -84.4279 North  Level Estimated
09:03AM 33.6367 -84.4279 North  Level Estimated